createdAt,value
2022-12-25T00:00:40.527Z,7.71
2022-12-25T00:01:40.477Z,7.71
2022-12-25T00:02:40.579Z,7.74
2022-12-25T00:03:40.510Z,7.72
2022-12-25T00:04:40.407Z,7.72
2022-12-25T00:05:40.774Z,7.71
2022-12-25T00:06:40.402Z,7.69
2022-12-25T00:07:40.371Z,7.71
2022-12-25T00:08:40.410Z,7.67
2022-12-25T00:09:40.424Z,7.67
2022-12-25T00:10:45.279Z,7.63
2022-12-25T00:11:40.399Z,7.63
2022-12-25T00:12:40.655Z,7.63
2022-12-25T00:13:40.332Z,7.63
2022-12-25T00:14:40.317Z,7.63
2022-12-25T00:15:40.316Z,7.60
2022-12-25T00:16:40.279Z,7.60
2022-12-25T00:17:40.331Z,7.59
2022-12-25T00:18:40.252Z,7.56
2022-12-25T00:19:40.549Z,7.56
2022-12-25T00:20:40.232Z,7.56
2022-12-25T00:21:40.244Z,7.55
2022-12-25T00:22:40.190Z,7.53
2022-12-25T00:23:40.232Z,7.55
2022-12-25T00:24:40.160Z,7.53
2022-12-25T00:25:40.177Z,7.49
2022-12-25T00:26:40.452Z,7.50
2022-12-25T00:27:40.167Z,7.49
2022-12-25T00:28:40.189Z,7.49
2022-12-25T00:29:40.196Z,7.50
2022-12-25T00:30:40.136Z,7.49
2022-12-25T00:31:40.183Z,7.49
2022-12-25T00:32:40.149Z,7.47
2022-12-25T00:33:40.396Z,7.47
2022-12-25T00:34:40.061Z,7.45
2022-12-25T00:35:40.112Z,7.44
2022-12-25T00:36:42.192Z,7.41
2022-12-25T00:37:40.059Z,7.41
2022-12-25T00:38:40.019Z,7.40
2022-12-25T00:39:39.996Z,7.38
2022-12-25T00:40:40.295Z,7.38
2022-12-25T00:41:40.070Z,7.37
2022-12-25T00:42:40.028Z,7.37
2022-12-25T00:43:39.969Z,7.35
2022-12-25T00:44:39.999Z,7.34
2022-12-25T00:45:39.993Z,7.35
2022-12-25T00:46:40.016Z,7.34
2022-12-25T00:47:40.282Z,7.34
2022-12-25T00:48:39.920Z,7.34
2022-12-25T00:49:39.891Z,7.35
2022-12-25T00:50:39.930Z,7.35
2022-12-25T00:51:39.883Z,7.35
2022-12-25T00:52:39.880Z,7.40
2022-12-25T00:53:39.901Z,7.41
2022-12-25T00:54:40.143Z,7.41
2022-12-25T00:55:39.830Z,7.44
2022-12-25T00:56:39.847Z,7.45
2022-12-25T00:57:39.847Z,7.45
2022-12-25T00:58:39.823Z,7.49
2022-12-25T00:59:39.856Z,7.52
2022-12-25T01:00:39.878Z,7.56
2022-12-25T01:01:40.295Z,7.59
2022-12-25T01:02:39.872Z,7.60
2022-12-25T01:03:39.773Z,7.63
2022-12-25T01:04:39.802Z,7.62
2022-12-25T01:05:39.855Z,7.66
2022-12-25T01:06:39.728Z,7.69
2022-12-25T01:07:39.718Z,7.71
2022-12-25T01:08:39.999Z,7.71
2022-12-25T01:09:39.720Z,7.74
2022-12-25T01:10:39.716Z,7.77
2022-12-25T01:11:39.763Z,7.79
2022-12-25T01:12:39.695Z,7.79
2022-12-25T01:13:39.673Z,7.82
2022-12-25T01:14:39.667Z,7.87
2022-12-25T01:15:39.930Z,7.87
2022-12-25T01:16:39.761Z,7.87
2022-12-25T01:17:39.663Z,7.92
2022-12-25T01:18:39.661Z,7.92
2022-12-25T01:19:39.606Z,7.96
2022-12-25T01:20:39.615Z,7.99
2022-12-25T01:21:39.570Z,8.00
2022-12-25T01:22:39.864Z,8.03
2022-12-25T01:23:39.583Z,8.04
2022-12-25T01:24:39.554Z,8.10
2022-12-25T01:25:39.527Z,8.07
2022-12-25T01:26:39.523Z,8.11
2022-12-25T01:27:39.503Z,8.14
2022-12-25T01:28:39.518Z,8.12
2022-12-25T01:29:39.836Z,8.14
2022-12-25T01:30:39.502Z,8.17
2022-12-25T01:31:39.519Z,8.18
2022-12-25T01:32:39.453Z,8.20
2022-12-25T01:33:39.458Z,8.20
2022-12-25T01:34:39.449Z,8.21
2022-12-25T01:35:39.466Z,8.22
2022-12-25T01:36:39.749Z,8.26
2022-12-25T01:37:39.443Z,8.28
2022-12-25T01:38:39.379Z,8.29
2022-12-25T01:39:39.407Z,8.30
2022-12-25T01:40:39.381Z,8.30
2022-12-25T01:41:39.398Z,8.33
2022-12-25T01:42:39.355Z,8.35
2022-12-25T01:43:39.622Z,8.36
2022-12-25T01:44:39.339Z,8.39
2022-12-25T01:45:39.425Z,8.42
2022-12-25T01:46:39.330Z,8.44
2022-12-25T01:47:39.367Z,8.44
2022-12-25T01:48:39.316Z,8.45
2022-12-25T01:49:39.296Z,8.44
2022-12-25T01:50:39.655Z,8.45
2022-12-25T01:51:39.309Z,8.44
2022-12-25T01:52:39.254Z,8.42
2022-12-25T01:53:39.266Z,8.40
2022-12-25T01:54:39.234Z,8.40
2022-12-25T01:55:39.244Z,8.40
2022-12-25T01:56:39.226Z,8.40
2022-12-25T01:57:39.484Z,8.40
2022-12-25T01:58:39.177Z,8.40
2022-12-25T01:59:39.232Z,8.42
2022-12-25T02:00:39.210Z,8.42
2022-12-25T02:01:39.283Z,8.42
2022-12-25T02:02:39.338Z,8.42
2022-12-25T02:03:39.143Z,8.44
2022-12-25T02:04:39.392Z,8.44
2022-12-25T02:05:39.145Z,8.42
2022-12-25T02:06:39.101Z,8.44
2022-12-25T02:07:39.087Z,8.42
2022-12-25T02:08:39.084Z,8.40
2022-12-25T02:09:39.098Z,8.40
2022-12-25T02:10:39.072Z,8.40
2022-12-25T02:11:39.385Z,8.42
2022-12-25T02:12:39.045Z,8.42
2022-12-25T02:13:39.057Z,8.40
2022-12-25T02:14:39.045Z,8.40
2022-12-25T02:15:39.005Z,8.40
2022-12-25T02:16:56.792Z,8.40
2022-12-25T02:17:39.012Z,8.39
2022-12-25T02:18:39.254Z,8.39
2022-12-25T02:19:38.980Z,8.42
2022-12-25T02:20:38.943Z,8.39
2022-12-25T02:21:38.963Z,8.39
2022-12-25T02:22:38.971Z,8.37
2022-12-25T02:23:38.957Z,8.37
2022-12-25T02:24:38.954Z,8.36
2022-12-25T02:25:39.233Z,8.36
2022-12-25T02:26:38.904Z,8.35
2022-12-25T02:27:38.901Z,8.35
2022-12-25T02:28:41.045Z,8.33
2022-12-25T02:29:38.869Z,8.33
2022-12-25T02:30:38.849Z,8.32
2022-12-25T02:31:38.946Z,8.30
2022-12-25T02:32:39.130Z,8.32
2022-12-25T02:33:38.805Z,8.30
2022-12-25T02:34:38.795Z,8.29
2022-12-25T02:35:38.839Z,8.29
2022-12-25T02:36:38.801Z,8.28
2022-12-25T02:37:38.777Z,8.28
2022-12-25T02:38:38.771Z,8.26
2022-12-25T02:39:39.030Z,8.26
2022-12-25T02:40:38.765Z,8.26
2022-12-25T02:41:38.755Z,8.25
2022-12-25T02:42:38.727Z,8.26
2022-12-25T02:43:38.702Z,8.25
2022-12-25T02:44:38.730Z,8.25
2022-12-25T02:45:38.739Z,8.25
2022-12-25T02:46:38.963Z,8.25
2022-12-25T02:47:38.708Z,8.25
2022-12-25T02:48:38.671Z,8.25
2022-12-25T02:49:38.689Z,8.25
2022-12-25T02:50:38.678Z,8.25
2022-12-25T02:51:38.626Z,8.25
2022-12-25T02:52:38.624Z,8.25
2022-12-25T02:53:38.665Z,8.28
2022-12-25T02:54:38.627Z,8.26
2022-12-25T02:55:38.584Z,8.30
2022-12-25T02:56:38.600Z,8.29
2022-12-25T02:57:38.569Z,8.33
2022-12-25T02:58:38.836Z,8.32
2022-12-25T02:59:38.607Z,8.32
2022-12-25T03:00:38.540Z,8.33
2022-12-25T03:01:38.647Z,8.32
2022-12-25T03:02:38.555Z,8.32
2022-12-25T03:03:38.628Z,8.32
2022-12-25T03:04:38.531Z,8.32
2022-12-25T03:05:38.548Z,8.33
2022-12-25T03:06:38.474Z,8.32
2022-12-25T03:07:38.458Z,8.33
2022-12-25T03:08:38.459Z,8.30
2022-12-25T03:09:38.441Z,8.33
2022-12-25T03:10:38.727Z,8.33
2022-12-25T03:11:38.451Z,8.32
2022-12-25T03:12:38.417Z,8.30
2022-12-25T03:13:38.390Z,8.32
2022-12-25T03:14:38.401Z,8.32
2022-12-25T03:15:38.380Z,8.32
2022-12-25T03:16:38.429Z,8.33
2022-12-25T03:17:38.695Z,8.33
2022-12-25T03:18:38.357Z,8.33
2022-12-25T03:19:38.328Z,8.33
2022-12-25T03:20:38.359Z,8.35
2022-12-25T03:21:38.319Z,8.35
2022-12-25T03:22:38.337Z,8.36
2022-12-25T03:23:38.331Z,8.35
2022-12-25T03:24:38.569Z,8.35
2022-12-25T03:25:38.277Z,8.32
2022-12-25T03:26:38.292Z,8.30
2022-12-25T03:27:38.251Z,8.30
2022-12-25T03:28:38.250Z,8.29
2022-12-25T03:29:38.271Z,8.28
2022-12-25T03:30:38.307Z,8.28
2022-12-25T03:31:38.508Z,8.26
2022-12-25T03:32:38.209Z,8.25
2022-12-25T03:33:45.967Z,8.25
2022-12-25T03:34:38.186Z,8.25
2022-12-25T03:35:38.191Z,8.25
2022-12-25T03:36:38.159Z,8.21
2022-12-25T03:37:38.139Z,8.21
2022-12-25T03:38:38.450Z,8.21
2022-12-25T03:39:38.198Z,8.20
2022-12-25T03:40:38.128Z,8.21
2022-12-25T03:41:38.142Z,8.20
2022-12-25T03:42:38.105Z,8.21
2022-12-25T03:43:38.086Z,8.22
2022-12-25T03:44:38.083Z,8.20
2022-12-25T03:45:38.361Z,8.21
2022-12-25T03:46:38.063Z,8.22
2022-12-25T03:47:38.079Z,8.22
2022-12-25T03:48:38.037Z,8.22
2022-12-25T03:49:38.026Z,8.22
2022-12-25T03:50:38.019Z,8.22
2022-12-25T03:51:38.012Z,8.22
2022-12-25T03:52:38.283Z,8.25
2022-12-25T03:53:38.098Z,8.25
2022-12-25T03:54:38.034Z,8.28
2022-12-25T03:55:37.959Z,8.25
2022-12-25T03:56:37.995Z,8.26
2022-12-25T03:57:37.943Z,8.29
2022-12-25T03:58:37.942Z,8.28
2022-12-25T03:59:38.239Z,8.32
2022-12-25T04:00:37.970Z,8.30
2022-12-25T04:01:38.068Z,8.32
2022-12-25T04:02:38.218Z,8.32
2022-12-25T04:03:37.933Z,8.33
2022-12-25T04:04:37.868Z,8.33
2022-12-25T04:05:37.877Z,8.35
2022-12-25T04:06:38.125Z,8.35
2022-12-25T04:07:37.839Z,8.36
2022-12-25T04:08:37.835Z,8.36
2022-12-25T04:09:37.813Z,8.36
2022-12-25T04:10:37.842Z,8.36
2022-12-25T04:11:37.881Z,8.39
2022-12-25T04:12:37.786Z,8.39
2022-12-25T04:13:38.060Z,8.40
2022-12-25T04:14:37.774Z,8.40
2022-12-25T04:15:37.832Z,8.42
2022-12-25T04:16:37.750Z,8.42
2022-12-25T04:17:37.827Z,8.42
2022-12-25T04:18:37.728Z,8.45
2022-12-25T04:19:37.715Z,8.45
2022-12-25T04:20:37.973Z,8.45
2022-12-25T04:21:37.711Z,8.45
2022-12-25T04:22:37.674Z,8.45
2022-12-25T04:23:37.705Z,8.45
2022-12-25T04:24:37.668Z,8.45
2022-12-25T04:25:37.642Z,8.45
2022-12-25T04:26:37.640Z,8.47
2022-12-25T04:27:37.925Z,8.48
2022-12-25T04:28:37.619Z,8.50
2022-12-25T04:29:37.658Z,8.48
2022-12-25T04:30:37.624Z,8.48
2022-12-25T04:31:37.692Z,8.50
2022-12-25T04:32:37.588Z,8.48
2022-12-25T04:33:37.559Z,8.51
2022-12-25T04:34:37.848Z,8.51
2022-12-25T04:35:37.572Z,8.54
2022-12-25T04:36:37.540Z,8.54
2022-12-25T04:37:37.518Z,8.54
2022-12-25T04:38:37.521Z,8.53
2022-12-25T04:39:37.498Z,8.55
2022-12-25T04:40:37.505Z,8.55
2022-12-25T04:41:37.830Z,8.55
2022-12-25T04:42:37.463Z,8.55
2022-12-25T04:43:37.460Z,8.58
2022-12-25T04:44:37.445Z,8.58
2022-12-25T04:45:37.440Z,8.58
2022-12-25T04:46:37.511Z,8.60
2022-12-25T04:47:37.483Z,8.62
2022-12-25T04:48:37.402Z,8.62
2022-12-25T04:49:37.407Z,8.65
2022-12-25T04:50:37.667Z,8.68
2022-12-25T04:51:37.384Z,8.71
2022-12-25T04:52:37.379Z,8.72
2022-12-25T04:53:37.386Z,8.73
2022-12-25T04:54:37.341Z,8.75
2022-12-25T04:55:37.336Z,8.75
2022-12-25T04:56:43.347Z,8.78
2022-12-25T04:57:37.324Z,8.79
2022-12-25T04:58:37.340Z,8.81
2022-12-25T04:59:37.331Z,8.84
2022-12-25T05:00:37.296Z,8.86
2022-12-25T05:01:37.342Z,8.87
2022-12-25T05:02:37.771Z,8.88
2022-12-25T05:03:37.293Z,8.90
2022-12-25T05:04:37.269Z,8.90
2022-12-25T05:05:37.256Z,8.93
2022-12-25T05:06:37.223Z,8.94
2022-12-25T05:07:37.228Z,8.97
2022-12-25T05:08:37.230Z,8.99
2022-12-25T05:09:37.519Z,9.02
2022-12-25T05:10:37.173Z,9.04
2022-12-25T05:11:37.218Z,9.04
2022-12-25T05:12:37.166Z,9.04
2022-12-25T05:13:37.156Z,9.04
2022-12-25T05:14:37.153Z,9.04
2022-12-25T05:15:37.182Z,9.04
2022-12-25T05:16:37.435Z,9.05
2022-12-25T05:17:37.158Z,9.05
2022-12-25T05:18:37.117Z,9.05
2022-12-25T05:19:37.095Z,9.05
2022-12-25T05:20:40.326Z,9.06
2022-12-25T05:21:37.063Z,9.05
2022-12-25T05:22:37.058Z,9.05
2022-12-25T05:23:37.386Z,9.05
2022-12-25T05:24:37.029Z,9.06
2022-12-25T05:25:37.020Z,9.09
2022-12-25T05:26:37.032Z,9.09
2022-12-25T05:27:37.001Z,9.09
2022-12-25T05:28:36.988Z,9.09
2022-12-25T05:29:37.017Z,9.06
2022-12-25T05:30:37.248Z,9.06
2022-12-25T05:31:37.015Z,9.10
2022-12-25T05:32:36.965Z,9.06
2022-12-25T05:33:36.950Z,9.10
2022-12-25T05:34:36.926Z,9.09
2022-12-25T05:35:36.943Z,9.10
2022-12-25T05:36:36.910Z,9.13
2022-12-25T05:37:38.181Z,9.13
2022-12-25T05:38:36.881Z,9.12
2022-12-25T05:39:36.876Z,9.12
2022-12-25T05:40:36.883Z,9.15
2022-12-25T05:41:36.898Z,9.13
2022-12-25T05:42:36.848Z,9.15
2022-12-25T05:43:36.955Z,9.16
2022-12-25T05:44:37.133Z,9.18
2022-12-25T05:45:36.877Z,9.18
2022-12-25T05:46:36.888Z,9.18
2022-12-25T05:47:36.848Z,9.18
2022-12-25T05:48:36.876Z,9.16
2022-12-25T05:49:36.777Z,9.18
2022-12-25T05:50:36.764Z,9.20
2022-12-25T05:51:37.043Z,9.18
2022-12-25T05:52:36.763Z,9.20
2022-12-25T05:53:36.789Z,9.20
2022-12-25T05:54:36.726Z,9.20
2022-12-25T05:55:36.706Z,9.20
2022-12-25T05:56:36.693Z,9.18
2022-12-25T05:57:36.695Z,9.20
2022-12-25T05:58:36.972Z,9.18
2022-12-25T05:59:36.708Z,9.16
2022-12-25T06:00:36.652Z,9.16
2022-12-25T06:01:36.819Z,9.16
2022-12-25T06:02:36.934Z,9.16
2022-12-25T06:03:36.669Z,9.18
2022-12-25T06:04:36.621Z,9.18
2022-12-25T06:05:36.927Z,9.20
2022-12-25T06:06:36.590Z,9.18
2022-12-25T06:07:36.597Z,9.18
2022-12-25T06:08:36.561Z,9.20
2022-12-25T06:09:36.568Z,9.20
2022-12-25T06:10:36.584Z,9.20
2022-12-25T06:11:36.576Z,9.18
2022-12-25T06:12:36.807Z,9.18
2022-12-25T06:13:36.540Z,9.20
2022-12-25T06:14:36.519Z,9.20
2022-12-25T06:15:36.503Z,9.20
2022-12-25T06:16:38.501Z,9.20
2022-12-25T06:17:36.503Z,9.18
2022-12-25T06:18:36.459Z,9.16
2022-12-25T06:19:36.755Z,9.15
2022-12-25T06:20:36.472Z,9.16
2022-12-25T06:21:36.440Z,9.16
2022-12-25T06:22:36.419Z,9.13
2022-12-25T06:23:36.596Z,9.13
2022-12-25T06:24:36.393Z,9.15
2022-12-25T06:25:36.398Z,9.13
2022-12-25T06:26:36.685Z,9.12
2022-12-25T06:27:36.370Z,9.13
2022-12-25T06:28:36.361Z,9.12
2022-12-25T06:29:36.437Z,9.10
2022-12-25T06:30:36.356Z,9.10
2022-12-25T06:31:36.425Z,9.09
2022-12-25T06:32:36.335Z,9.06
2022-12-25T06:33:36.604Z,9.06
2022-12-25T06:34:36.300Z,9.04
2022-12-25T06:35:36.324Z,9.05
2022-12-25T06:36:36.280Z,9.04
2022-12-25T06:37:36.274Z,9.02
2022-12-25T06:38:36.256Z,9.04
2022-12-25T06:39:36.244Z,9.05
2022-12-25T06:40:36.568Z,9.09
2022-12-25T06:41:36.269Z,9.09
2022-12-25T06:42:36.220Z,9.09
2022-12-25T06:43:36.217Z,9.12
2022-12-25T06:44:36.208Z,9.12
2022-12-25T06:45:36.214Z,9.10
2022-12-25T06:46:36.186Z,9.12
2022-12-25T06:47:36.494Z,9.10
2022-12-25T06:48:36.170Z,9.12
2022-12-25T06:49:36.151Z,9.10
2022-12-25T06:50:36.169Z,9.09
2022-12-25T06:51:36.138Z,9.06
2022-12-25T06:52:36.123Z,9.06
2022-12-25T06:53:40.350Z,9.05
2022-12-25T06:54:36.121Z,9.05
2022-12-25T06:55:36.100Z,9.06
2022-12-25T06:56:36.074Z,9.05
2022-12-25T06:57:36.085Z,9.04
2022-12-25T06:58:36.048Z,9.04
2022-12-25T06:59:36.088Z,9.02
2022-12-25T07:00:36.499Z,9.05
2022-12-25T07:01:36.179Z,9.09
2022-12-25T07:02:36.310Z,9.09
2022-12-25T07:03:36.020Z,9.10
2022-12-25T07:04:36.013Z,9.12
2022-12-25T07:05:36.023Z,9.09
2022-12-25T07:06:35.963Z,9.12
2022-12-25T07:07:35.965Z,9.10
2022-12-25T07:08:35.982Z,9.10
2022-12-25T07:09:35.965Z,9.09
2022-12-25T07:10:35.928Z,9.09
2022-12-25T07:11:35.962Z,9.09
2022-12-25T07:12:36.223Z,9.10
2022-12-25T07:13:35.921Z,9.09
2022-12-25T07:14:35.883Z,9.06
2022-12-25T07:15:35.876Z,9.05
2022-12-25T07:16:35.909Z,9.06
2022-12-25T07:17:35.923Z,9.06
2022-12-25T07:18:35.841Z,9.06
2022-12-25T07:19:41.111Z,9.06
2022-12-25T07:20:35.854Z,9.05
2022-12-25T07:21:35.823Z,9.06
2022-12-25T07:22:35.806Z,9.09
2022-12-25T07:23:35.834Z,9.06
2022-12-25T07:24:36.090Z,9.05
2022-12-25T07:25:37.594Z,9.06
2022-12-25T07:26:35.769Z,9.09
2022-12-25T07:27:35.756Z,9.12
2022-12-25T07:28:35.753Z,9.12
2022-12-25T07:29:35.793Z,9.13
2022-12-25T07:30:35.739Z,9.10
2022-12-25T07:31:36.034Z,9.12
2022-12-25T07:32:35.721Z,9.12
2022-12-25T07:33:35.697Z,9.12
2022-12-25T07:34:35.699Z,9.10
2022-12-25T07:35:35.799Z,9.10
2022-12-25T07:36:35.654Z,9.10
2022-12-25T07:37:35.665Z,9.10
2022-12-25T07:38:35.917Z,9.09
2022-12-25T07:39:35.661Z,9.09
2022-12-25T07:40:35.625Z,9.10
2022-12-25T07:41:35.652Z,9.10
2022-12-25T07:42:35.630Z,9.09
2022-12-25T07:43:35.597Z,9.05
2022-12-25T07:44:35.609Z,9.04
2022-12-25T07:45:35.908Z,9.04
2022-12-25T07:46:35.566Z,9.04
2022-12-25T07:47:35.594Z,9.02
2022-12-25T07:48:35.552Z,9.04
2022-12-25T07:49:35.570Z,9.05
2022-12-25T07:50:35.554Z,9.05
2022-12-25T07:51:35.550Z,9.05
2022-12-25T07:52:43.002Z,9.05
2022-12-25T07:53:35.581Z,9.04
2022-12-25T07:54:35.478Z,9.04
2022-12-25T07:55:35.500Z,9.05
2022-12-25T07:56:35.464Z,9.06
2022-12-25T07:57:35.711Z,9.04
2022-12-25T07:58:35.431Z,9.04
2022-12-25T07:59:35.796Z,9.02
2022-12-25T08:00:35.486Z,9.01
2022-12-25T08:01:35.654Z,9.01
2022-12-25T08:02:35.591Z,9.01
2022-12-25T08:03:35.630Z,9.01
2022-12-25T08:04:35.391Z,9.01
2022-12-25T08:05:35.417Z,9.01
2022-12-25T08:06:35.635Z,9.01
2022-12-25T08:07:35.359Z,9.02
2022-12-25T08:08:35.360Z,9.02
2022-12-25T08:09:35.351Z,9.01
2022-12-25T08:10:35.314Z,9.01
2022-12-25T08:11:35.347Z,9.01
2022-12-25T08:12:35.338Z,9.01
2022-12-25T08:13:35.583Z,9.01
2022-12-25T08:14:35.287Z,8.99
2022-12-25T08:15:35.273Z,8.99
2022-12-25T08:16:35.332Z,8.97
2022-12-25T08:17:35.319Z,8.97
2022-12-25T08:18:35.232Z,8.99
2022-12-25T08:19:35.237Z,8.99
2022-12-25T08:20:35.603Z,9.01
2022-12-25T08:21:35.198Z,9.01
2022-12-25T08:22:35.187Z,9.01
2022-12-25T08:23:35.246Z,9.04
2022-12-25T08:24:35.184Z,9.05
2022-12-25T08:25:35.163Z,9.06
2022-12-25T08:26:35.157Z,9.15
2022-12-25T08:27:35.458Z,9.24
2022-12-25T08:28:35.153Z,9.28
2022-12-25T08:29:35.157Z,9.25
2022-12-25T08:30:35.143Z,9.23
2022-12-25T08:31:37.269Z,9.16
2022-12-25T08:32:35.085Z,9.12
2022-12-25T08:33:35.075Z,9.12
2022-12-25T08:34:35.361Z,9.12
2022-12-25T08:35:35.134Z,9.10
2022-12-25T08:36:35.057Z,9.05
2022-12-25T08:37:35.032Z,9.05
2022-12-25T08:38:35.046Z,9.01
2022-12-25T08:39:35.032Z,9.02
2022-12-25T08:40:35.019Z,8.99
2022-12-25T08:41:35.328Z,8.97
2022-12-25T08:42:34.997Z,8.96
2022-12-25T08:43:35.018Z,8.94
2022-12-25T08:44:34.962Z,8.94
2022-12-25T08:45:35.564Z,8.93
2022-12-25T08:46:35.011Z,8.90
2022-12-25T08:47:35.012Z,8.90
2022-12-25T08:48:35.223Z,8.91
2022-12-25T08:49:34.907Z,8.88
2022-12-25T08:50:34.892Z,8.87
2022-12-25T08:51:34.896Z,8.86
2022-12-25T08:52:34.917Z,8.86
2022-12-25T08:53:34.907Z,8.79
2022-12-25T08:54:34.866Z,8.79
2022-12-25T08:55:35.172Z,8.79
2022-12-25T08:56:34.860Z,8.79
2022-12-25T08:57:34.882Z,8.76
2022-12-25T08:58:34.821Z,8.78
2022-12-25T08:59:34.903Z,8.78
2022-12-25T09:00:34.809Z,8.79
2022-12-25T09:01:34.945Z,8.78
2022-12-25T09:02:35.312Z,8.78
2022-12-25T09:03:34.900Z,8.79
2022-12-25T09:04:34.793Z,8.79
2022-12-25T09:05:34.803Z,8.79
2022-12-25T09:06:34.747Z,8.79
2022-12-25T09:07:34.746Z,8.81
2022-12-25T09:08:34.741Z,8.83
2022-12-25T09:09:35.099Z,8.81
2022-12-25T09:10:34.713Z,8.83
2022-12-25T09:11:34.743Z,8.81
2022-12-25T09:12:34.759Z,8.83
2022-12-25T09:13:34.691Z,8.81
2022-12-25T09:14:34.665Z,8.83
2022-12-25T09:15:34.755Z,8.83
2022-12-25T09:16:34.944Z,8.81
2022-12-25T09:17:34.662Z,8.83
2022-12-25T09:18:34.659Z,8.83
2022-12-25T09:19:34.651Z,8.81
2022-12-25T09:20:34.629Z,8.83
2022-12-25T09:21:34.609Z,8.79
2022-12-25T09:22:34.619Z,8.79
2022-12-25T09:23:34.971Z,8.81
2022-12-25T09:24:34.614Z,8.83
2022-12-25T09:25:34.565Z,8.81
2022-12-25T09:26:34.564Z,8.81
2022-12-25T09:27:34.543Z,8.81
2022-12-25T09:28:34.532Z,8.83
2022-12-25T09:29:34.557Z,8.84
2022-12-25T09:30:34.853Z,8.84
2022-12-25T09:31:34.641Z,8.86
2022-12-25T09:32:34.550Z,8.87
2022-12-25T09:33:34.486Z,8.90
2022-12-25T09:34:34.465Z,8.91
2022-12-25T09:35:34.557Z,8.93
2022-12-25T09:36:34.439Z,8.94
2022-12-25T09:37:34.761Z,8.94
2022-12-25T09:38:34.458Z,8.96
2022-12-25T09:39:34.459Z,8.99
2022-12-25T09:40:34.399Z,8.99
2022-12-25T09:41:34.471Z,8.99
2022-12-25T09:42:34.419Z,8.99
2022-12-25T09:43:34.434Z,9.01
2022-12-25T09:44:34.640Z,9.04
2022-12-25T09:45:34.428Z,9.05
2022-12-25T09:46:37.258Z,9.05
2022-12-25T09:47:34.446Z,9.09
2022-12-25T09:48:34.321Z,9.09
2022-12-25T09:49:34.313Z,9.10
2022-12-25T09:50:34.327Z,9.12
2022-12-25T09:51:34.581Z,9.13
2022-12-25T09:52:34.297Z,9.13
2022-12-25T09:53:34.387Z,9.15
2022-12-25T09:54:34.305Z,9.16
2022-12-25T09:55:34.260Z,9.18
2022-12-25T09:56:34.247Z,9.18
2022-12-25T09:57:34.229Z,9.21
2022-12-25T09:58:34.528Z,9.23
2022-12-25T09:59:34.259Z,9.23
2022-12-25T10:00:34.239Z,9.24
2022-12-25T10:01:34.331Z,9.25
2022-12-25T10:02:34.340Z,9.24
2022-12-25T10:03:34.266Z,9.24
2022-12-25T10:04:40.537Z,9.25
2022-12-25T10:05:34.243Z,9.25
2022-12-25T10:06:34.124Z,9.25
2022-12-25T10:07:34.123Z,9.27
2022-12-25T10:08:34.117Z,9.27
2022-12-25T10:09:34.124Z,9.25
2022-12-25T10:10:34.108Z,9.25
2022-12-25T10:11:34.418Z,9.25
2022-12-25T10:12:34.133Z,9.27
2022-12-25T10:13:34.086Z,9.25
2022-12-25T10:14:34.066Z,9.23
2022-12-25T10:15:34.280Z,9.24
2022-12-25T10:16:34.168Z,9.25
2022-12-25T10:17:34.093Z,9.25
2022-12-25T10:18:34.051Z,9.23
2022-12-25T10:19:34.040Z,9.23
2022-12-25T10:20:34.035Z,9.21
2022-12-25T10:21:34.029Z,9.21
2022-12-25T10:22:33.948Z,9.18
2022-12-25T10:23:34.315Z,9.18
2022-12-25T10:24:34.008Z,9.16
2022-12-25T10:25:33.912Z,9.16
2022-12-25T10:26:33.912Z,9.15
2022-12-25T10:27:33.934Z,9.13
2022-12-25T10:28:33.915Z,9.13
2022-12-25T10:29:34.011Z,9.12
2022-12-25T10:30:33.881Z,9.12
2022-12-25T10:31:33.966Z,9.10
2022-12-25T10:32:33.943Z,9.09
2022-12-25T10:33:33.860Z,9.09
2022-12-25T10:34:33.881Z,9.06
2022-12-25T10:35:34.247Z,9.05
2022-12-25T10:36:33.889Z,9.09
2022-12-25T10:37:33.863Z,9.05
2022-12-25T10:38:33.818Z,9.05
2022-12-25T10:39:33.882Z,9.06
2022-12-25T10:40:33.852Z,9.06
2022-12-25T10:41:33.947Z,9.06
2022-12-25T10:42:34.126Z,9.06
2022-12-25T10:43:33.773Z,9.09
2022-12-25T10:44:33.811Z,9.05
2022-12-25T10:45:33.775Z,9.05
2022-12-25T10:46:33.763Z,9.05
2022-12-25T10:47:33.800Z,9.06
2022-12-25T10:48:33.682Z,9.06
2022-12-25T10:49:33.995Z,9.05
2022-12-25T10:50:33.727Z,9.04
2022-12-25T10:51:33.681Z,9.06
2022-12-25T10:52:33.770Z,9.05
2022-12-25T10:53:33.749Z,9.05
2022-12-25T10:54:33.677Z,9.05
2022-12-25T10:55:33.783Z,9.06
2022-12-25T10:56:35.028Z,9.05
2022-12-25T10:57:33.687Z,9.09
2022-12-25T10:58:33.635Z,9.10
2022-12-25T10:59:33.708Z,9.06
2022-12-25T11:00:33.732Z,9.05
2022-12-25T11:01:33.691Z,9.05
2022-12-25T11:02:33.816Z,9.06
2022-12-25T11:03:33.993Z,9.05
2022-12-25T11:04:33.591Z,9.05
2022-12-25T11:05:33.699Z,9.06
2022-12-25T11:06:33.593Z,9.06
2022-12-25T11:07:33.631Z,9.10
2022-12-25T11:08:33.618Z,9.10
2022-12-25T11:09:33.543Z,9.10
2022-12-25T11:10:33.839Z,9.12
2022-12-25T11:11:33.601Z,9.12
2022-12-25T11:12:33.468Z,9.10
2022-12-25T11:13:33.481Z,9.12
2022-12-25T11:14:33.483Z,9.15
2022-12-25T11:15:33.492Z,9.13
2022-12-25T11:16:33.536Z,9.13
2022-12-25T11:17:33.808Z,9.15
2022-12-25T11:18:33.378Z,9.13
2022-12-25T11:19:33.396Z,9.13
2022-12-25T11:20:33.405Z,9.15
2022-12-25T11:21:33.522Z,9.15
2022-12-25T11:22:33.375Z,9.15
2022-12-25T11:23:33.466Z,9.15
2022-12-25T11:24:33.657Z,9.15
2022-12-25T11:25:33.407Z,9.15
2022-12-25T11:26:33.351Z,9.15
2022-12-25T11:27:33.299Z,9.16
2022-12-25T11:28:33.395Z,9.16
2022-12-25T11:29:33.329Z,9.15
2022-12-25T11:30:33.376Z,9.16
2022-12-25T11:31:33.739Z,9.16
2022-12-25T11:32:33.258Z,9.16
2022-12-25T11:33:33.235Z,9.16
2022-12-25T11:34:33.244Z,9.16
2022-12-25T11:35:33.260Z,9.16
2022-12-25T11:36:33.218Z,9.16
2022-12-25T11:37:33.252Z,9.15
2022-12-25T11:38:33.482Z,9.16
2022-12-25T11:39:33.198Z,9.18
2022-12-25T11:40:33.345Z,9.16
2022-12-25T11:41:33.190Z,9.18
2022-12-25T11:42:33.733Z,9.18
2022-12-25T11:43:33.177Z,9.20
2022-12-25T11:44:33.208Z,9.18
2022-12-25T11:45:33.448Z,9.18
2022-12-25T11:46:33.284Z,9.18
2022-12-25T11:47:33.254Z,9.18
2022-12-25T11:48:33.140Z,9.16
2022-12-25T11:49:33.129Z,9.20
2022-12-25T11:50:33.105Z,9.20
2022-12-25T11:51:33.120Z,9.20
2022-12-25T11:52:33.373Z,9.20
2022-12-25T11:53:33.215Z,9.20
2022-12-25T11:54:33.059Z,9.20
2022-12-25T11:55:33.020Z,9.20
2022-12-25T11:56:33.050Z,9.20
2022-12-25T11:57:33.009Z,9.20
2022-12-25T11:58:32.974Z,9.23
2022-12-25T11:59:33.403Z,9.21
2022-12-25T12:00:33.068Z,9.21
2022-12-25T12:01:33.148Z,9.23
2022-12-25T12:02:33.111Z,9.23
2022-12-25T12:03:33.029Z,9.21
2022-12-25T12:04:40.358Z,9.23
2022-12-25T12:05:33.032Z,9.24
2022-12-25T12:06:33.235Z,9.21
2022-12-25T12:07:33.009Z,9.24
2022-12-25T12:08:32.868Z,9.25
2022-12-25T12:09:32.960Z,9.27
2022-12-25T12:10:32.918Z,9.24
2022-12-25T12:11:32.950Z,9.25
2022-12-25T12:12:32.898Z,9.25
2022-12-25T12:13:33.195Z,9.27
2022-12-25T12:14:32.881Z,9.25
2022-12-25T12:15:32.900Z,9.25
2022-12-25T12:16:33.054Z,9.27
2022-12-25T12:17:32.894Z,9.25
2022-12-25T12:18:32.842Z,9.25
2022-12-25T12:19:32.780Z,9.25
2022-12-25T12:20:33.078Z,9.24
2022-12-25T12:21:32.758Z,9.23
2022-12-25T12:22:32.779Z,9.23
2022-12-25T12:23:32.882Z,9.24
2022-12-25T12:24:32.737Z,9.23
2022-12-25T12:25:32.725Z,9.23
2022-12-25T12:26:32.740Z,9.23
2022-12-25T12:27:33.054Z,9.23
2022-12-25T12:28:32.694Z,9.23
2022-12-25T12:29:32.798Z,9.23
2022-12-25T12:30:32.704Z,9.24
2022-12-25T12:31:32.729Z,9.24
2022-12-25T12:32:32.768Z,9.24
2022-12-25T12:33:32.652Z,9.24
2022-12-25T12:34:32.980Z,9.25
2022-12-25T12:35:32.658Z,9.27
2022-12-25T12:36:36.879Z,9.27
2022-12-25T12:37:32.677Z,9.27
2022-12-25T12:38:32.612Z,9.27
2022-12-25T12:39:32.546Z,9.25
2022-12-25T12:40:32.629Z,9.25
2022-12-25T12:41:32.934Z,9.25
2022-12-25T12:42:32.619Z,9.25
2022-12-25T12:43:32.588Z,9.24
2022-12-25T12:44:32.532Z,9.24
2022-12-25T12:45:32.616Z,9.24
2022-12-25T12:46:32.592Z,9.25
2022-12-25T12:47:32.593Z,9.24
2022-12-25T12:48:32.783Z,9.25
2022-12-25T12:49:32.446Z,9.27
2022-12-25T12:50:32.495Z,9.23
2022-12-25T12:51:32.491Z,9.24
2022-12-25T12:52:32.485Z,9.24
2022-12-25T12:53:32.472Z,9.24
2022-12-25T12:54:32.494Z,9.25
2022-12-25T12:55:32.706Z,9.25
2022-12-25T12:56:32.389Z,9.24
2022-12-25T12:57:32.412Z,9.23
2022-12-25T12:58:32.406Z,9.23
2022-12-25T12:59:32.492Z,9.24
2022-12-25T13:00:32.380Z,9.24
2022-12-25T13:01:32.462Z,9.23
2022-12-25T13:02:32.814Z,9.23
2022-12-25T13:03:32.372Z,9.21
2022-12-25T13:04:32.331Z,9.21
2022-12-25T13:05:34.933Z,9.23
2022-12-25T13:06:32.347Z,9.23
2022-12-25T13:07:32.338Z,9.20
2022-12-25T13:08:32.310Z,9.21
2022-12-25T13:09:32.514Z,9.20
2022-12-25T13:10:32.270Z,9.21
2022-12-25T13:11:32.342Z,9.20
2022-12-25T13:12:32.269Z,9.21
2022-12-25T13:13:32.252Z,9.20
2022-12-25T13:14:32.313Z,9.20
2022-12-25T13:15:32.216Z,9.20
2022-12-25T13:16:32.592Z,9.20
2022-12-25T13:17:32.249Z,9.20
2022-12-25T13:18:32.222Z,9.20